Time;durP1;ratioP1;P1;durP2;ratioP2;P2;SDS_P1;SDS_P2;PMS_P1;PMS_P2;Temp;Humidity;BMP_temperature;BMP_pressure;BME280_temperature;BME280_humidity;BME280_pressure;Samples;Min_cycle;Max_cycle;Signal;HPM_P1;HPM_P2
2022/06/12 03:02:06;;;;;;;0.20;0.10;;;;;;;;;;4965509;28;20275;-91
2022/06/12 09:00:23;;;;;;;1.70;0.60;;;;;;;;;;4987727;28;20061;-89
2022/06/12 09:02:49;;;;;;;1.20;0.35;;;;;;;;;;4972519;28;20410;-90
2022/06/12 09:05:43;;;;;;;0.20;0.10;;;;;;;;;;4962910;28;20031;-92
2022/06/12 09:08:36;;;;;;;0.50;0.40;;;;;;;;;;4970742;28;20193;-87
2022/06/12 09:11:11;;;;;;;0.57;0.57;;;;;;;;;;4940752;28;20050;-87
2022/06/12 09:13:58;;;;;;;0.20;0.10;;;;;;;;;;4958369;28;20038;-92
2022/06/12 09:16:39;;;;;;;0.82;0.80;;;;;;;;;;4955631;28;20049;-89
2022/06/12 09:19:24;;;;;;;0.20;0.08;;;;;;;;;;4936634;28;20403;-90
2022/06/12 09:21:59;;;;;;;0.22;0.15;;;;;;;;;;4951742;28;20039;-88
2022/06/12 09:24:28;;;;;;;0.20;0.20;;;;;;;;;;4958391;28;20042;-89
2022/06/12 09:27:02;;;;;;;0.28;0.25;;;;;;;;;;4956912;28;20027;-88
2022/06/12 09:29:51;;;;;;;0.20;0.10;;;;;;;;;;4954467;28;20038;-90
2022/06/12 09:32:38;;;;;;;0.47;0.30;;;;;;;;;;4956478;28;20046;-89
2022/06/12 09:35:13;;;;;;;1.02;0.90;;;;;;;;;;4951634;28;20046;-91
2022/06/12 09:40:38;;;;;;;0.20;0.10;;;;;;;;;;4954494;28;20404;-88
2022/06/12 09:43:28;;;;;;;0.20;0.10;;;;;;;;;;4951400;28;20039;-88
2022/06/12 09:45:54;;;;;;;0.30;0.10;;;;;;;;;;4953957;28;20546;-87
2022/06/12 09:48:26;;;;;;;0.20;0.20;;;;;;;;;;4936199;28;20038;-87
2022/06/12 09:50:58;;;;;;;0.20;0.10;;;;;;;;;;4951540;28;20568;-88
2022/06/12 09:53:39;;;;;;;0.20;0.15;;;;;;;;;;4954480;28;20078;-90
2022/06/12 09:56:25;;;;;;;0.52;0.52;;;;;;;;;;4958885;28;20039;-89
2022/06/12 09:58:57;;;;;;;0.20;0.10;;;;;;;;;;4953613;28;20705;-91
2022/06/12 10:01:28;;;;;;;5.15;0.50;;;;;;;;;;4963597;28;20086;-89
2022/06/12 10:04:10;;;;;;;0.80;0.22;;;;;;;;;;4939875;28;20046;-89
2022/06/12 10:06:50;;;;;;;0.20;0.10;;;;;;;;;;4953346;28;20411;-89
2022/06/12 10:09:29;;;;;;;0.20;0.10;;;;;;;;;;4950569;28;20579;-88
2022/06/12 10:12:11;;;;;;;0.20;0.10;;;;;;;;;;4951999;28;20035;-87
2022/06/12 10:14:50;;;;;;;0.20;0.10;;;;;;;;;;4950372;28;20043;-88
2022/06/12 10:17:23;;;;;;;0.20;0.10;;;;;;;;;;4955355;28;20152;-92
2022/06/12 10:19:57;;;;;;;0.20;0.10;;;;;;;;;;4948775;28;20123;-89
2022/06/12 10:22:32;;;;;;;0.20;0.10;;;;;;;;;;4951695;28;20457;-90
2022/06/12 10:24:59;;;;;;;0.20;0.10;;;;;;;;;;4956519;28;20050;-88
2022/06/12 10:27:26;;;;;;;0.20;0.10;;;;;;;;;;4952301;28;20496;-88
2022/06/12 10:30:00;;;;;;;0.30;0.20;;;;;;;;;;4942888;28;20039;-87
2022/06/12 10:32:46;;;;;;;0.20;0.10;;;;;;;;;;4964444;28;20038;-88
2022/06/12 10:35:17;;;;;;;0.20;0.10;;;;;;;;;;4947021;28;20494;-89
2022/06/12 10:37:44;;;;;;;0.20;0.00;;;;;;;;;;4949196;28;20096;-88
2022/06/12 10:40:16;;;;;;;0.20;0.10;;;;;;;;;;4950806;28;20043;-86
2022/06/12 10:42:42;;;;;;;0.80;0.75;;;;;;;;;;4951803;28;20046;-87
2022/06/12 10:45:35;;;;;;;0.20;0.17;;;;;;;;;;4950558;28;20073;-89
2022/06/12 10:48:03;;;;;;;0.20;0.10;;;;;;;;;;4932042;28;20039;-86
2022/06/12 10:50:29;;;;;;;0.20;0.10;;;;;;;;;;4947194;28;20045;-86
2022/06/12 10:53:24;;;;;;;0.20;0.10;;;;;;;;;;4949491;28;20070;-89
2022/06/12 10:56:11;;;;;;;0.20;0.10;;;;;;;;;;4928612;28;21016;-87
2022/06/12 10:58:37;;;;;;;0.20;0.10;;;;;;;;;;4950780;28;20503;-88
2022/06/12 11:01:11;;;;;;;0.20;0.10;;;;;;;;;;4952370;28;20112;-87
2022/06/12 11:04:00;;;;;;;0.20;0.10;;;12.00;99.90;;;;;;4952789;28;20478;-88
2022/06/12 11:06:32;;;;;;;1.75;1.08;;;;;;;;;;4950179;28;20078;-91
2022/06/12 11:09:16;;;;;;;0.20;0.10;;;;;;;;;;4949416;28;20035;-88
2022/06/12 11:11:45;;;;;;;0.20;0.10;;;;;;;;;;4953103;28;20513;-89
2022/06/12 11:14:30;;;;;;;0.20;0.10;;;;;;;;;;4928543;28;20550;-87
2022/06/12 11:17:02;;;;;;;0.20;0.10;;;;;;;;;;4952607;28;20050;-88
2022/06/12 11:19:29;;;;;;;;;;;;;;;;;;4948041;28;20615;-87
2022/06/12 11:21:55;;;;;;;0.20;0.10;;;;;;;;;;4952017;28;19932;-87
2022/06/12 11:24:26;;;;;;;0.40;0.32;;;;;;;;;;4948702;28;20486;-89
2022/06/12 11:27:11;;;;;;;0.20;0.10;;;;;;;;;;4947467;28;20039;-89
2022/06/12 11:29:56;;;;;;;0.20;0.10;;;;;;;;;;4947612;28;20089;-87
2022/06/12 11:32:34;;;;;;;0.20;0.20;;;;;;;;;;4947524;28;20034;-88
2022/06/12 11:35:09;;;;;;;0.40;0.40;;;;;;;;;;4948361;28;20034;-87
2022/06/12 11:37:36;;;;;;;0.20;0.10;;;;;;;;;;4952707;28;20122;-90
2022/06/12 11:40:19;;;;;;;0.20;0.10;;;;;;;;;;4951547;28;20049;-92
2022/06/12 11:42:45;;;;;;;0.20;0.10;;;;;;;;;;4946558;28;20038;-87
2022/06/12 11:45:16;;;;;;;2.10;0.15;;;;;;;;;;4947133;28;20041;-87
2022/06/12 11:47:59;;;;;;;0.20;0.10;;;;;;;;;;4947641;28;20319;-89
2022/06/12 11:50:31;;;;;;;0.20;0.10;;;;;;;;;;4942961;28;20629;-89
2022/06/12 11:52:57;;;;;;;1.45;0.28;;;;;;;;;;4944473;28;20523;-90
2022/06/12 11:55:42;;;;;;;0.20;0.10;;;;;;;;;;4946104;28;20439;-88
2022/06/12 11:58:19;;;;;;;0.20;0.10;;;;;;;;;;4938826;28;20424;-86
2022/06/12 12:01:05;;;;;;;0.20;0.00;;;;;;;;;;4944898;28;20297;-89
2022/06/12 12:03:49;;;;;;;0.20;0.10;;;;;;;;;;4944823;28;20566;-89
2022/06/12 12:06:34;;;;;;;0.20;0.10;;;;;;;;;;4946872;28;20038;-89
2022/06/12 12:09:00;;;;;;;0.20;0.10;;;;;;;;;;4948516;28;20057;-89
2022/06/12 12:11:32;;;;;;;0.20;0.10;;;;;;;;;;4944252;28;20458;-88
2022/06/12 12:14:03;;;;;;;0.20;0.10;;;;;;;;;;4944991;28;20118;-87
2022/06/12 12:16:29;;;;;;;0.20;0.10;;;;;;;;;;4947580;28;20508;-88
2022/06/12 12:19:06;;;;;;;0.20;0.10;;;;;;;;;;4944470;28;20410;-89
2022/06/12 12:21:39;;;;;;;0.20;0.10;;;;;;;;;;4947103;28;20057;-89
2022/06/12 12:24:08;;;;;;;0.40;0.25;;;;;;;;;;4942165;28;20403;-90
2022/06/12 12:26:37;;;;;;;0.40;0.38;;;;;;;;;;4959208;28;20062;-89
2022/06/12 12:29:10;;;;;;;0.20;0.10;;;;;;;;;;4945315;28;20495;-88
2022/06/12 12:31:36;;;;;;;0.20;0.10;;;;;;;;;;4941511;28;20042;-87
2022/06/12 12:34:05;;;;;;;0.20;0.20;;;;;;;;;;4943681;28;20269;-90
2022/06/12 12:42:30;;;;;;;0.20;0.10;;;;;;;;;;4944032;28;20054;-91
2022/06/12 12:45:08;;;;;;;0.30;0.22;;;;;;;;;;4944437;28;20039;-90
2022/06/12 12:47:43;;;;;;;0.20;0.10;;;;;;;;;;4942642;28;20157;-88
2022/06/12 12:50:14;;;;;;;0.20;0.10;;;;;;;;;;4944769;28;20049;-92
2022/06/12 12:52:52;;;;;;;0.20;0.10;;;;;;;;;;4948253;28;20317;-88
2022/06/12 12:55:29;;;;;;;0.20;0.10;;;;;;;;;;4961594;28;20037;-87
2022/06/12 12:58:00;;;;;;;0.20;0.10;;;;;;;;;;4946852;28;20687;-90
2022/06/12 13:00:26;;;;;;;0.20;0.05;;;;;;;;;;4946774;28;20356;-90
2022/06/12 13:03:10;;;;;;;0.20;0.10;;;;;;;;;;4944498;28;20079;-93
2022/06/12 13:05:45;;;;;;;0.20;0.00;;;;;;;;;;4925544;28;20039;-93
2022/06/12 13:08:35;;;;;;;0.20;0.10;;;;;;;;;;4942129;28;20307;-91
2022/06/12 13:11:12;;;;;;;0.20;0.10;;;;;;;;;;4941774;28;20041;-88
2022/06/12 13:13:58;;;;;;;0.20;0.15;;;;;;;;;;4941991;28;20610;-91
2022/06/12 13:16:37;;;;;;;0.20;0.10;;;;;;;;;;4945670;28;20038;-88
2022/06/12 13:19:18;;;;;;;0.20;0.20;;;;;;;;;;4939750;28;20074;-89
2022/06/12 13:21:58;;;;;;;0.65;0.30;;;;;;;;;;4952083;28;20222;-90
2022/06/12 13:25:11;;;;;;;4.03;0.40;;;;;;;;;;4949880;28;20085;-89
2022/06/12 13:27:54;;;;;;;0.25;0.15;;;;;;;;;;4926170;28;20053;-90
2022/06/12 13:30:22;;;;;;;0.20;0.10;;;;;;;;;;4952241;28;20041;-88
2022/06/12 13:33:12;;;;;;;0.60;0.20;;;;;;;;;;4949159;28;20484;-91
2022/06/12 13:36:06;;;;;;;0.20;0.10;;;;;;;;;;4949493;28;20046;-90
2022/06/12 13:38:44;;;;;;;0.20;0.10;;;;;;;;;;4956134;28;20042;-89
2022/06/12 13:41:29;;;;;;;0.20;0.10;;;;;;;;;;4952449;28;20035;-91
2022/06/12 13:43:57;;;;;;;0.20;0.00;;;;;;;;;;4954496;28;20039;-87
2022/06/12 13:46:36;;;;;;;0.20;0.10;;;;;;;;;;4952784;28;20031;-92
2022/06/12 13:49:14;;;;;;;0.20;0.10;;;;;;;;;;4946420;28;20121;-88
2022/06/12 13:52:13;;;;;;;0.20;0.08;;;;;;;;;;4954235;28;20125;-87
2022/06/12 13:54:41;;;;;;;0.20;0.10;;;;;;;;;;4919946;28;20147;-90
2022/06/12 13:57:29;;;;;;;0.73;0.20;;;;;;;;;;4944169;28;20126;-89
2022/06/12 13:59:55;;;;;;;4.15;0.25;;;;;;;;;;4937514;28;20140;-89
2022/06/12 14:02:22;;;;;;;0.20;0.10;;;;;;;;;;4949637;28;20039;-89
2022/06/12 14:04:57;;;;;;;0.20;0.10;;;;;;;;;;4947880;28;20047;-89
2022/06/12 14:07:26;;;;;;;0.20;0.10;;;;;;;;;;4946378;28;20038;-90
2022/06/12 14:09:56;;;;;;;0.20;0.10;;;;;;;;;;4945592;28;20128;-90
2022/06/12 14:12:26;;;;;;;0.20;0.10;;;;;;;;;;4941659;28;20031;-90
2022/06/12 14:14:57;;;;;;;0.20;0.10;;;;;;;;;;4950299;28;20038;-89
2022/06/12 14:17:25;;;;;;;0.20;0.08;;;;;;;;;;4940972;28;20057;-90
2022/06/12 14:20:03;;;;;;;0.20;0.10;;;;;;;;;;4946636;28;20050;-91
2022/06/12 14:22:34;;;;;;;0.20;0.10;;;;;;;;;;4939096;28;20042;-89
2022/06/12 14:25:16;;;;;;;0.20;0.10;;;;;;;;;;4946282;28;20043;-91
2022/06/12 14:27:53;;;;;;;0.20;0.10;;;;;;;;;;4947754;28;20487;-88
2022/06/12 14:30:35;;;;;;;0.20;0.10;;;;;;;;;;4944124;28;20121;-88
2022/06/12 14:33:02;;;;;;;0.20;0.10;;;;;;;;;;4947083;28;20038;-90
2022/06/12 14:35:28;;;;;;;0.20;0.10;;;;;;;;;;4947811;28;20035;-87
2022/06/12 14:37:54;;;;;;;0.20;0.10;;;;;;;;;;4934125;28;20716;-88
2022/06/12 14:40:20;;;;;;;0.22;0.22;;;;;;;;;;4942141;28;20035;-90
2022/06/12 14:42:50;;;;;;;0.20;0.10;;;;;;;;;;4920454;28;20058;-91
2022/06/12 14:45:24;;;;;;;0.20;0.10;;;;;;;;;;4930742;28;20504;-89
2022/06/12 14:47:50;;;;;;;0.20;0.10;;;;;;;;;;4932016;28;20050;-90
2022/06/12 14:50:17;;;;;;;0.20;0.10;;;;;;;;;;4935005;28;20082;-87
2022/06/12 14:53:07;;;;;;;0.20;0.13;;;;;;;;;;4933326;28;20066;-93
2022/06/12 14:55:33;;;;;;;0.30;0.30;;;;;;;;;;4918833;28;20515;-87
2022/06/12 14:57:59;;;;;;;0.77;0.38;;;;;;;;;;4935408;28;20038;-90
2022/06/12 15:03:19;;;;;;;0.20;0.10;;;;;;;;;;4928427;28;20094;-90
2022/06/12 15:06:02;;;;;;;0.20;0.00;;;;;;;;;;4944247;28;20070;-89
2022/06/12 15:08:38;;;;;;;0.20;0.10;;;;;;;;;;4926267;28;20518;-90
2022/06/12 15:11:19;;;;;;;0.20;0.10;;;;;;;;;;4916316;28;20035;-89
2022/06/12 15:13:46;;;;;;;0.30;0.30;;;;;;;;;;4933597;28;20050;-90
2022/06/12 15:16:12;;;;;;;0.20;0.10;;;21.00;99.90;;;;;;4931819;28;20039;-88
2022/06/12 15:18:39;;;;;;;0.20;0.10;;;19.90;99.90;;;;;;4954182;28;20042;-87
2022/06/12 15:21:45;;;;;;;0.20;0.10;;;19.80;99.90;;;;;;4933097;28;21039;-90
2022/06/12 15:24:22;;;;;;;0.43;0.30;;;19.80;99.90;;;;;;4942702;28;21028;-86
2022/06/12 15:29:51;;;;;;;0.20;0.10;;;19.70;99.90;;;;;;4924976;28;20070;-88
2022/06/12 15:32:42;;;;;;;;;;;;;;;;;;;;;
2022/06/12 16:09:19;;;;;;;0.20;0.10;;;19.60;99.90;;;;;;4963067;28;20049;-88
2022/06/12 16:12:18;;;;;;;;;;;;;;;;;;;;;
2022/06/12 16:26:31;;;;;;;;;;;;;;;;;;;;;
2022/06/12 16:30:12;;;;;;;0.20;0.10;;;19.80;99.90;;;;;;4869484;29;20132;-87
2022/06/12 16:32:38;;;;;;;0.20;0.10;;;19.70;99.90;;;;;;4855589;29;20540;-87
2022/06/12 16:35:04;;;;;;;0.20;0.10;;;19.70;99.90;;;;;;4909424;29;20043;-86
2022/06/12 16:37:35;;;;;;;0.40;0.20;;;19.70;99.90;;;;;;4909544;29;20039;-86
2022/06/12 16:40:34;;;;;;;;;;;;;;;;;;;;;
2022/06/12 16:43:45;;;;;;;0.20;0.10;;;19.60;99.90;;;;;;4925891;29;20054;-88
2022/06/12 16:46:53;;;;;;;0.20;0.10;;;;;;;;;;5027216;23;20054;-85
2022/06/12 16:49:59;;;;;;;0.20;0.00;;;;;;;;;;4954650;28;20174;-86
2022/06/12 16:52:28;;;;;;;0.20;0.10;;;;;;;;;;4939808;28;20134;-85
2022/06/12 16:54:55;;;;;;;0.20;0.10;;;;;;;;;;4970066;23;20075;-85
2022/06/12 16:57:36;;;;;;;;;;;;;;;;;;;;;
2022/06/12 17:03:28;;;;;;;0.20;0.10;;;;;;;;;;4940858;28;20420;-85
2022/06/12 17:05:54;;;;;;;0.20;0.08;;;;;;;;;;4940899;28;20035;-85
2022/06/12 17:08:23;;;;;;;0.22;0.15;;;;;;;;;;4958161;28;20044;-85
2022/06/12 17:10:50;;;;;;;0.20;0.10;;;;;;;;;;4932192;28;20093;-87
2022/06/12 17:13:32;;;;;;;0.20;0.10;;;;;;;;;;4942225;28;20097;-86
2022/06/12 17:16:20;;;;;;;0.30;0.30;;;;;;;;;;4948879;28;20055;-85
2022/06/12 17:22:16;;;;;;;0.20;0.10;;;;;;;;;;4954124;28;20051;-85
2022/06/12 17:25:16;;;;;;;;;;;;;;;;;;;;;
2022/06/12 17:31:52;;;;;;;0.60;0.57;;;;;;;;;;4942590;28;20071;-86
2022/06/12 17:34:35;;;;;;;0.20;0.10;;;;;;;;;;4950409;28;20523;-83
2022/06/12 17:37:12;;;;;;;0.20;0.10;;;;;;;;;;4910210;28;20055;-86
2022/06/12 17:39:42;;;;;;;0.20;0.10;;;;;;;;;;4930330;29;20110;-86
2022/06/12 17:42:09;;;;;;;0.20;0.10;;;;;;;;;;4942444;28;20047;-84
2022/06/12 17:44:38;;;;;;;0.20;0.00;;;;;;;;;;4935969;29;20110;-85
2022/06/12 17:47:05;;;;;;;0.20;0.10;;;;;;;;;;4939731;29;20046;-87
2022/06/12 17:49:34;;;;;;;0.30;0.10;;;;;;;;;;4967017;28;20074;-86
2022/06/12 17:52:03;;;;;;;0.20;0.10;;;;;;;;;;4935440;29;20035;-85
2022/06/12 17:54:30;;;;;;;0.20;0.10;;;;;;;;;;4961768;28;20102;-85
2022/06/12 17:57:02;;;;;;;0.20;0.10;;;;;;;;;;4946230;28;20315;-85
2022/06/12 17:59:29;;;;;;;0.40;0.20;;;;;;;;;;4939189;28;20043;-86
2022/06/12 18:02:15;;;;;;;0.20;0.10;;;;;;;;;;4933846;29;20089;-84
2022/06/12 18:04:45;;;;;;;0.20;0.10;;;;;;;;;;4957412;28;20264;-86
2022/06/12 18:07:11;;;;;;;0.20;0.10;;;;;;;;;;4946546;28;20437;-84
2022/06/12 18:09:38;;;;;;;0.20;0.10;;;;;;;;;;4959161;28;20121;-85
2022/06/12 18:12:10;;;;;;;0.20;0.10;;;;;;;;;;4947455;28;20035;-84
2022/06/12 18:20:15;;;;;;;0.20;0.10;;;;;;;;;;4976683;28;20054;-85
2022/06/12 18:22:42;;;;;;;0.20;0.10;;;;;;;;;;4964198;28;20053;-85
2022/06/12 18:25:12;;;;;;;0.20;0.10;;;;;;;;;;4938849;28;20043;-86
2022/06/12 18:27:38;;;;;;;0.20;0.10;;;;;;;;;;4933165;29;20229;-84
2022/06/12 18:30:12;;;;;;;0.20;0.10;;;;;;;;;;4925017;28;20043;-87
2022/06/12 18:32:42;;;;;;;0.20;0.00;;;;;;;;;;4947978;28;20031;-87
2022/06/12 18:35:09;;;;;;;0.20;0.17;;;;;;;;;;4957434;28;20042;-86
2022/06/12 18:37:36;;;;;;;0.20;0.00;;;;;;;;;;4930503;29;20041;-86
2022/06/12 18:40:16;;;;;;;0.20;0.10;;;;;;;;;;4951025;28;20564;-86
2022/06/12 18:42:46;;;;;;;0.20;0.10;;;;;;;;;;4923921;28;20047;-87
2022/06/12 18:45:26;;;;;;;0.20;0.08;;;;;;;;;;4938085;28;20070;-86
2022/06/12 18:47:52;;;;;;;0.20;0.08;;;;;;;;;;4924335;28;20043;-86
2022/06/12 18:50:21;;;;;;;0.20;0.10;;;;;;;;;;4958936;28;20062;-85
2022/06/12 18:52:51;;;;;;;0.20;0.10;;;;;;;;;;4942965;28;20788;-87
2022/06/12 18:55:17;;;;;;;0.20;0.10;;;;;;;;;;4964593;28;20117;-85
2022/06/12 18:57:43;;;;;;;0.20;0.10;;;;;;;;;;4965250;28;20097;-86
2022/06/12 19:00:11;;;;;;;0.20;0.10;;;;;;;;;;4948968;28;20043;-86
2022/06/12 19:02:38;;;;;;;0.20;0.10;;;;;;;;;;4945625;28;20066;-85
2022/06/12 19:05:14;;;;;;;0.20;0.10;;;;;;;;;;4938897;28;20049;-84
2022/06/12 19:07:40;;;;;;;0.20;0.10;;;;;;;;;;4951099;28;20086;-85
2022/06/12 19:10:06;;;;;;;0.20;0.00;;;;;;;;;;4968198;28;20039;-85
2022/06/12 19:12:33;;;;;;;0.20;0.00;;;;;;;;;;4941844;28;20043;-85
2022/06/12 19:15:10;;;;;;;0.20;0.10;;;;;;;;;;4950526;28;20074;-86
2022/06/12 19:17:39;;;;;;;0.20;0.10;;;;;;;;;;4935117;28;20101;-86
2022/06/12 19:20:06;;;;;;;0.20;0.00;;;;;;;;;;4967560;28;20154;-86
2022/06/12 19:22:32;;;;;;;0.20;0.10;;;;;;;;;;4954126;28;20058;-86
2022/06/12 19:25:01;;;;;;;0.20;0.10;;;;;;;;;;4954139;28;20439;-86
2022/06/12 19:27:36;;;;;;;0.20;0.00;;;;;;;;;;4968723;28;20060;-87
2022/06/12 19:30:08;;;;;;;0.20;0.10;;;;;;;;;;4967451;28;20488;-86
2022/06/12 19:32:35;;;;;;;0.20;0.20;;;;;;;;;;4938504;28;20587;-87
2022/06/12 19:35:08;;;;;;;0.20;0.05;;;;;;;;;;4935039;28;20054;-87
2022/06/12 19:37:46;;;;;;;0.20;0.05;;;;;;;;;;4968759;28;20094;-86
2022/06/12 19:40:15;;;;;;;;;;;;;;;;;;4967059;28;20039;-87
2022/06/12 19:42:41;;;;;;;0.20;0.10;;;;;;;;;;4964576;28;19922;-90
2022/06/12 19:45:13;;;;;;;0.20;0.10;;;;;;;;;;4945727;28;20039;-88
2022/06/12 19:47:48;;;;;;;0.20;0.00;;;;;;;;;;4967249;28;20034;-86
2022/06/12 19:50:25;;;;;;;0.20;0.10;;;;;;;;;;4938625;28;20039;-86
2022/06/12 19:52:52;;;;;;;0.20;0.10;;;;;;;;;;4982732;28;20090;-87
2022/06/12 19:55:20;;;;;;;0.20;0.10;;;;;;;;;;4940075;28;20520;-89
2022/06/12 19:57:46;;;;;;;0.20;0.10;;;;;;;;;;4949703;28;20249;-87
2022/06/12 20:00:14;;;;;;;0.20;0.10;;;;;;;;;;4932855;28;20043;-86
2022/06/12 20:02:40;;;;;;;0.20;0.10;;;;;;;;;;4951442;28;20047;-87
2022/06/12 20:07:52;;;;;;;0.20;0.00;;;;;;;;;;4962377;28;20070;-86
2022/06/12 20:10:18;;;;;;;0.20;0.10;;;;;;;;;;4967520;28;20488;-87
2022/06/12 20:12:45;;;;;;;0.20;0.10;;;;;;;;;;4948406;28;20039;-87
2022/06/12 20:15:15;;;;;;;0.20;0.10;;;;;;;;;;4959787;28;20051;-88
2022/06/12 20:17:42;;;;;;;0.20;0.00;;;;;;;;;;4940921;28;20047;-88
2022/06/12 20:20:11;;;;;;;0.20;0.05;;;;;;;;;;4944125;28;20686;-87
2022/06/12 20:22:38;;;;;;;0.20;0.08;;;;;;;;;;4957748;28;20097;-86
2022/06/12 20:25:05;;;;;;;0.20;0.10;;;;;;;;;;4947816;28;20451;-88
2022/06/12 20:27:31;;;;;;;0.20;0.00;;;;;;;;;;4932195;28;20061;-89
2022/06/12 20:29:59;;;;;;;0.20;0.10;;;;;;;;;;4931815;28;20046;-87
2022/06/12 20:32:26;;;;;;;0.20;0.10;;;19.50;99.90;;;;;;4961583;28;20159;-88
2022/06/12 20:34:52;;;;;;;0.20;0.10;;;;;;;;;;4948062;28;20121;-86
2022/06/12 20:37:19;;;;;;;0.20;0.10;;;;;;;;;;4944111;28;20054;-86
2022/06/12 20:39:45;;;;;;;0.20;0.10;;;;;;;;;;4976046;28;20164;-89
2022/06/12 20:42:12;;;;;;;0.20;0.10;;;;;;;;;;4945631;28;20045;-87
2022/06/12 20:44:38;;;;;;;0.20;0.10;;;;;;;;;;4936486;28;20077;-87
2022/06/12 20:47:04;;;;;;;0.20;0.10;;;;;;;;;;4930927;28;20054;-87
2022/06/12 20:49:30;;;;;;;0.20;0.10;;;;;;;;;;4948921;28;20533;-87
2022/06/12 20:51:56;;;;;;;0.20;0.10;;;;;;;;;;4999823;23;20056;-87
2022/06/12 20:54:22;;;;;;;0.20;0.10;;;;;;;;;;4897703;29;20040;-87
2022/06/12 20:56:48;;;;;;;0.20;0.10;;;;;;;;;;4881659;29;20076;-87
2022/06/12 20:59:15;;;;;;;0.20;0.10;;;;;;;;;;4893333;29;20408;-87
2022/06/12 21:01:41;;;;;;;0.20;0.10;;;;;;;;;;4879903;29;20126;-87
2022/06/12 21:04:07;;;;;;;0.20;0.10;;;;;;;;;;4891890;29;20096;-87
2022/06/12 21:06:34;;;;;;;0.20;0.10;;;;;;;;;;4881518;29;20040;-87
2022/06/12 21:09:00;;;;;;;0.20;0.10;;;;;;;;;;4887004;29;20509;-87
2022/06/12 21:11:26;;;;;;;0.20;0.00;;;;;;;;;;4901880;29;20120;-88
2022/06/12 21:13:52;;;;;;;0.20;0.10;;;;;;;;;;4893859;29;20040;-87
2022/06/12 21:16:19;;;;;;;0.20;0.10;;;;;;;;;;4896828;29;20067;-87
2022/06/12 21:18:45;;;;;;;0.20;0.10;;;;;;;;;;4895502;29;21248;-87
2022/06/12 21:21:12;;;;;;;0.20;0.10;;;;;;;;;;4887104;29;20044;-88
2022/06/12 21:23:39;;;;;;;0.20;0.10;;;;;;;;;;4899467;29;20119;-87
2022/06/12 21:26:05;;;;;;;0.20;0.10;;;;;;;;;;4898844;29;20040;-88
2022/06/12 21:28:31;;;;;;;0.20;0.10;;;;;;;;;;4898948;29;20289;-88
2022/06/12 21:30:57;;;;;;;0.20;0.10;;;;;;;;;;4883282;29;20044;-88
2022/06/12 21:33:23;;;;;;;0.20;0.10;;;;;;;;;;4879043;29;20136;-88
2022/06/12 21:35:50;;;;;;;0.20;0.10;;;;;;;;;;4896831;29;20040;-87
2022/06/12 21:38:16;;;;;;;0.20;0.10;;;;;;;;;;4897821;29;20039;-88
2022/06/12 21:40:42;;;;;;;0.20;0.10;;;;;;;;;;4899726;29;20753;-87
2022/06/12 21:43:08;;;;;;;0.20;0.10;;;;;;;;;;4895589;29;20114;-87
2022/06/12 21:45:35;;;;;;;0.20;0.10;;;;;;;;;;4874388;29;20063;-88
2022/06/12 21:48:01;;;;;;;0.20;0.00;;;;;;;;;;4883820;29;20070;-87
2022/06/12 21:50:27;;;;;;;0.20;0.10;;;;;;;;;;4898012;29;20051;-87
2022/06/12 21:55:38;;;;;;;0.20;0.10;;;;;;;;;;4916056;29;20489;-87
2022/06/12 21:58:05;;;;;;;0.20;0.10;;;;;;;;;;4908200;29;20755;-87
2022/06/12 22:00:32;;;;;;;0.20;0.10;;;;;;;;;;4900793;29;20049;-88
2022/06/12 22:02:58;;;;;;;0.20;0.10;;;;;;;;;;4902800;29;20050;-88
2022/06/12 22:05:24;;;;;;;0.20;0.10;;;;;;;;;;4898005;29;20051;-87
2022/06/12 22:07:51;;;;;;;0.20;0.10;;;;;;;;;;4905620;29;20504;-88
2022/06/12 22:10:17;;;;;;;0.20;0.00;;;;;;;;;;4897012;29;20044;-88
2022/06/12 22:12:43;;;;;;;0.20;0.10;;;;;;;;;;4902759;29;20046;-88
2022/06/12 22:15:11;;;;;;;0.20;0.05;;;;;;;;;;4880664;29;20899;-88
2022/06/12 22:17:37;;;;;;;0.20;0.10;;;;;;;;;;4900267;29;20057;-87
2022/06/12 22:20:04;;;;;;;0.20;0.10;;;;;;;;;;4902789;29;20043;-88
2022/06/12 22:22:31;;;;;;;0.20;0.10;;;;;;;;;;4905772;29;20050;-88
2022/06/12 22:24:57;;;;;;;0.20;0.10;;;;;;;;;;4899723;29;20195;-88
2022/06/12 22:27:25;;;;;;;0.20;0.00;;;;;;;;;;4890229;29;20131;-87
2022/06/12 22:29:51;;;;;;;0.20;0.10;;;;;;;;;;4903470;29;20134;-87
2022/06/12 22:32:17;;;;;;;0.20;0.10;;;;;;;;;;4903918;29;20054;-88
2022/06/12 22:34:44;;;;;;;0.20;0.00;;;;;;;;;;4898096;29;20559;-88
2022/06/12 22:37:10;;;;;;;0.20;0.10;;;;;;;;;;4902172;29;20417;-87
2022/06/12 22:39:37;;;;;;;0.20;0.10;;;;;;;;;;4903479;29;20066;-87
2022/06/12 22:42:03;;;;;;;0.20;0.10;;;;;;;;;;4902409;29;20524;-88
2022/06/12 22:44:30;;;;;;;0.20;0.10;;;;;;;;;;4903552;29;20480;-88
2022/06/12 22:46:56;;;;;;;0.20;0.10;;;;;;;;;;4882181;29;20386;-88
2022/06/12 22:49:22;;;;;;;0.20;0.10;;;;;;;;;;4905099;29;20071;-88
2022/06/12 22:51:48;;;;;;;0.20;0.03;;;;;;;;;;4903928;29;20039;-88
2022/06/12 22:54:14;;;;;;;0.20;0.10;;;;;;;;;;4888746;29;20440;-88
2022/06/12 22:56:41;;;;;;;0.20;0.10;;;;;;;;;;4901778;29;20036;-88
2022/06/12 22:59:07;;;;;;;0.20;0.10;;;;;;;;;;4900563;29;20098;-88
2022/06/12 23:01:33;;;;;;;0.20;0.10;;;;;;;;;;4885127;29;20047;-87
2022/06/12 23:03:59;;;;;;;0.20;0.10;;;;;;;;;;4901092;29;20087;-87
2022/06/12 23:06:25;;;;;;;0.20;0.00;;;;;;;;;;4887599;29;20039;-88
2022/06/12 23:08:51;;;;;;;0.20;0.10;;;;;;;;;;4901151;29;20043;-88
2022/06/12 23:11:17;;;;;;;0.20;0.00;;;;;;;;;;4865127;29;20071;-89
2022/06/12 23:13:44;;;;;;;0.20;0.10;;;;;;;;;;4900697;29;20040;-89
2022/06/12 23:16:11;;;;;;;0.20;0.10;;;;;;;;;;4898900;29;20429;-88
2022/06/12 23:18:37;;;;;;;0.20;0.10;;;;;;;;;;4894407;29;20090;-88
2022/06/12 23:21:03;;;;;;;0.20;0.08;;;;;;;;;;4896157;29;20051;-88
2022/06/12 23:23:29;;;;;;;0.20;0.10;;;;;;;;;;4886370;29;20044;-89
2022/06/12 23:25:57;;;;;;;0.20;0.10;;;;;;;;;;4899350;29;20673;-88
2022/06/12 23:28:24;;;;;;;0.20;0.10;;;;;;;;;;4901099;29;20389;-88
2022/06/12 23:30:50;;;;;;;0.20;0.10;;;;;;;;;;4902975;29;20043;-88
2022/06/12 23:33:20;;;;;;;0.20;0.10;;;;;;;;;;4900813;29;20047;-88
2022/06/12 23:35:47;;;;;;;0.20;0.10;;;;;;;;;;4903519;29;20043;-87
2022/06/12 23:38:14;;;;;;;1.85;0.80;;;;;;;;;;4891130;29;20055;-88
2022/06/12 23:40:40;;;;;;;0.20;0.10;;;;;;;;;;4908240;29;20078;-88
2022/06/12 23:43:06;;;;;;;0.20;0.10;;;;;;;;;;4903695;29;20314;-89
2022/06/12 23:45:33;;;;;;;0.20;0.10;;;;;;;;;;4901077;29;20039;-88
2022/06/12 23:47:59;;;;;;;0.20;0.10;;;;;;;;;;4897599;29;20535;-88
2022/06/12 23:50:25;;;;;;;0.28;0.20;;;;;;;;;;4903153;29;20477;-88
2022/06/12 23:52:51;;;;;;;0.20;0.20;;;;;;;;;;4889545;29;20066;-87
2022/06/12 23:55:18;;;;;;;0.20;0.10;;;;;;;;;;4887474;29;20127;-88
2022/06/12 23:57:44;;;;;;;0.20;0.10;;;;;;;;;;4887772;29;20043;-87
